createdAt,value
2023-02-21T00:02:19.974Z,3.22
2023-02-21T00:05:06.887Z,3.22
2023-02-21T00:07:53.726Z,3.25
2023-02-21T00:10:40.357Z,3.27
2023-02-21T00:13:28.444Z,3.29
2023-02-21T00:16:15.665Z,3.31
2023-02-21T00:19:02.247Z,3.33
2023-02-21T00:21:49.474Z,3.36
2023-02-21T00:24:37.472Z,3.38
2023-02-21T00:27:24.775Z,3.37
2023-02-21T00:30:11.739Z,3.34
2023-02-21T00:32:58.511Z,3.35
2023-02-21T00:35:45.165Z,3.37
2023-02-21T00:38:31.783Z,3.37
2023-02-21T00:41:18.572Z,3.36
2023-02-21T00:44:05.082Z,3.35
2023-02-21T00:46:51.886Z,3.36
2023-02-21T00:49:39.062Z,3.38
2023-02-21T00:52:25.511Z,3.40
2023-02-21T00:55:12.487Z,3.44
2023-02-21T00:58:00.031Z,3.48
2023-02-21T01:00:46.750Z,3.52
2023-02-21T01:03:33.713Z,3.55
2023-02-21T01:06:20.273Z,3.61
2023-02-21T01:09:06.963Z,3.69
2023-02-21T01:11:53.861Z,3.79
2023-02-21T01:14:40.668Z,3.91
2023-02-21T01:17:27.278Z,4.00
2023-02-21T01:20:14.016Z,4.09
2023-02-21T01:23:00.735Z,4.05
2023-02-21T01:25:47.141Z,4.05
2023-02-21T01:28:34.080Z,4.10
2023-02-21T01:31:23.366Z,4.20
2023-02-21T01:34:10.340Z,4.30
2023-02-21T01:37:00.579Z,4.43
2023-02-21T01:39:47.259Z,4.55
2023-02-21T01:42:34.196Z,4.63
2023-02-21T01:45:45.489Z,4.69
2023-02-21T01:48:36.279Z,4.79
2023-02-21T01:51:25.422Z,4.91
2023-02-21T01:54:13.689Z,5.03
2023-02-21T01:57:00.241Z,5.12
2023-02-21T01:59:47.622Z,5.25
2023-02-21T02:02:40.485Z,5.47
2023-02-21T02:05:29.942Z,5.71
2023-02-21T02:08:16.619Z,5.92
2023-02-21T02:11:05.254Z,6.04
2023-02-21T02:13:55.279Z,6.23
2023-02-21T02:16:44.934Z,6.41
2023-02-21T02:19:55.226Z,6.56
2023-02-21T02:22:48.175Z,6.73
2023-02-21T02:25:41.328Z,6.88
2023-02-21T02:28:38.785Z,7.01
2023-02-21T02:31:10.524Z,7.17
2023-02-21T02:34:17.186Z,7.24
2023-02-21T02:36:56.010Z,7.29
2023-02-21T02:39:39.960Z,7.36
2023-02-21T02:42:28.378Z,7.39
2023-02-21T02:45:18.092Z,7.41
2023-02-21T02:47:53.311Z,7.41
2023-02-21T02:50:23.441Z,7.39
2023-02-21T02:52:55.961Z,7.35
2023-02-21T02:55:51.258Z,7.31
2023-02-21T02:58:22.690Z,7.22
2023-02-21T03:01:07.948Z,7.13
2023-02-21T03:03:57.480Z,7.00
2023-02-21T03:06:53.354Z,6.89
2023-02-21T03:09:31.573Z,6.77
2023-02-21T03:12:09.994Z,6.66
2023-02-21T03:14:50.721Z,6.54
2023-02-21T03:17:23.851Z,6.42
2023-02-21T03:19:53.972Z,6.32
2023-02-21T03:22:26.823Z,6.23
2023-02-21T03:24:56.268Z,6.10
2023-02-21T03:27:27.082Z,6.00
2023-02-21T03:30:04.861Z,5.88
2023-02-21T03:32:50.571Z,5.80
2023-02-21T03:35:20.674Z,5.74
2023-02-21T03:37:55.243Z,5.64
2023-02-21T03:40:32.009Z,5.57
2023-02-21T03:43:02.793Z,5.58
2023-02-21T03:45:36.590Z,5.57
2023-02-21T03:48:31.933Z,5.51
2023-02-21T03:51:12.961Z,5.56
2023-02-21T03:53:41.291Z,5.66
2023-02-21T03:56:09.877Z,5.78
2023-02-21T03:59:16.609Z,5.93
2023-02-21T04:01:45.065Z,6.10
2023-02-21T04:04:14.326Z,6.20
2023-02-21T04:06:43.209Z,6.26
2023-02-21T04:09:11.903Z,6.31
2023-02-21T04:11:44.088Z,6.30
2023-02-21T04:14:13.362Z,6.34
2023-02-21T04:16:43.212Z,6.42
2023-02-21T04:19:11.555Z,6.48
2023-02-21T04:21:39.835Z,6.54
2023-02-21T04:24:08.408Z,6.56
2023-02-21T04:26:37.196Z,6.55
2023-02-21T04:29:06.416Z,6.54
2023-02-21T04:31:35.564Z,6.54
2023-02-21T04:34:12.076Z,6.54
2023-02-21T04:36:44.639Z,6.53
2023-02-21T04:39:12.860Z,6.52
2023-02-21T04:41:41.288Z,6.49
2023-02-21T04:44:11.111Z,6.47
2023-02-21T04:46:39.125Z,6.43
2023-02-21T04:49:08.481Z,6.44
2023-02-21T04:51:36.497Z,6.46
2023-02-21T04:54:04.926Z,6.41
2023-02-21T04:56:32.956Z,6.36
2023-02-21T04:59:01.089Z,6.36
2023-02-21T05:01:31.487Z,6.34
2023-02-21T05:04:00.174Z,6.35
2023-02-21T05:06:29.804Z,6.35
2023-02-21T05:08:59.254Z,6.34
2023-02-21T05:11:28.075Z,6.33
2023-02-21T05:13:56.249Z,6.29
2023-02-21T05:16:24.759Z,6.29
2023-02-21T05:18:53.109Z,6.31
2023-02-21T05:21:21.397Z,6.36
2023-02-21T05:23:58.689Z,6.43
2023-02-21T05:26:32.889Z,6.46
2023-02-21T05:29:01.459Z,6.50
2023-02-21T05:31:30.296Z,6.52
2023-02-21T05:33:58.304Z,6.59
2023-02-21T05:36:26.400Z,6.70
2023-02-21T05:38:56.280Z,6.77
2023-02-21T05:41:25.528Z,6.82
2023-02-21T05:43:53.885Z,6.86
2023-02-21T05:46:30.716Z,6.89
2023-02-21T05:49:00.832Z,6.91
2023-02-21T05:51:36.051Z,6.94
2023-02-21T05:54:08.182Z,6.98
2023-02-21T05:56:41.056Z,7.02
2023-02-21T05:59:10.030Z,7.06
2023-02-21T06:01:38.325Z,7.18
2023-02-21T06:04:07.886Z,7.90
2023-02-21T06:06:36.394Z,9.07
2023-02-21T06:09:05.182Z,10.13
2023-02-21T06:11:37.172Z,11.11
2023-02-21T06:14:07.754Z,11.86
2023-02-21T06:16:37.665Z,12.43
2023-02-21T06:19:08.799Z,12.94
2023-02-21T06:21:37.495Z,13.37
2023-02-21T06:24:05.701Z,13.89
2023-02-21T06:26:33.785Z,14.24
2023-02-21T06:29:02.057Z,14.59
2023-02-21T06:31:30.204Z,14.89
2023-02-21T06:33:58.827Z,15.24
2023-02-21T06:36:28.847Z,15.51
2023-02-21T06:38:58.352Z,15.82
2023-02-21T06:41:29.084Z,15.86
2023-02-21T06:43:59.196Z,15.46
2023-02-21T06:46:30.291Z,15.06
2023-02-21T06:48:59.027Z,14.65
2023-02-21T06:51:29.926Z,14.18
2023-02-21T06:53:58.845Z,13.73
2023-02-21T06:56:27.399Z,13.19
2023-02-21T06:58:56.106Z,12.88
2023-02-21T07:01:28.081Z,12.69
2023-02-21T07:03:58.072Z,12.37
2023-02-21T07:06:29.493Z,12.29
2023-02-21T07:08:57.957Z,12.17
2023-02-21T07:11:26.088Z,12.12
2023-02-21T07:13:56.830Z,12.10
2023-02-21T07:16:26.329Z,12.01
2023-02-21T07:18:55.317Z,12.04
2023-02-21T07:21:23.727Z,12.15
2023-02-21T07:23:51.812Z,12.38
2023-02-21T07:26:19.837Z,12.52
2023-02-21T07:28:49.469Z,12.63
2023-02-21T07:31:19.541Z,12.69
2023-02-21T07:33:47.944Z,12.90
2023-02-21T07:36:16.108Z,13.22
2023-02-21T07:38:44.249Z,13.30
2023-02-21T07:41:15.343Z,13.38
2023-02-21T07:43:43.713Z,13.62
2023-02-21T07:46:14.130Z,13.87
2023-02-21T07:48:42.235Z,13.93
2023-02-21T07:51:10.874Z,14.17
2023-02-21T07:53:38.795Z,14.04
2023-02-21T07:56:07.018Z,14.04
2023-02-21T07:58:37.535Z,14.18
2023-02-21T08:01:07.357Z,14.19
2023-02-21T08:03:35.743Z,14.41
2023-02-21T08:06:05.079Z,14.67
2023-02-21T08:08:33.389Z,15.38
2023-02-21T08:11:02.232Z,16.17
2023-02-21T08:13:30.373Z,16.84
2023-02-21T08:15:58.594Z,17.29
2023-02-21T08:18:27.138Z,17.89
2023-02-21T08:20:57.490Z,17.78
2023-02-21T08:23:26.135Z,17.31
2023-02-21T08:25:54.313Z,16.82
2023-02-21T08:28:22.591Z,16.44
2023-02-21T08:30:50.658Z,16.20
2023-02-21T08:33:18.831Z,15.98
2023-02-21T08:35:47.137Z,15.78
2023-02-21T08:38:15.565Z,15.39
2023-02-21T08:40:43.614Z,15.14
2023-02-21T08:43:12.133Z,15.17
2023-02-21T08:45:40.204Z,15.45
2023-02-21T08:48:08.296Z,15.49
2023-02-21T08:50:36.452Z,15.37
2023-02-21T08:53:04.468Z,15.32
2023-02-21T08:55:32.657Z,15.51
2023-02-21T08:58:00.795Z,15.95
2023-02-21T09:00:28.964Z,16.41
2023-02-21T09:02:59.683Z,17.29
2023-02-21T09:05:29.526Z,18.22
2023-02-21T09:07:59.764Z,18.96
2023-02-21T09:10:30.605Z,19.48
2023-02-21T09:12:58.818Z,19.91
2023-02-21T09:15:27.305Z,20.40
2023-02-21T09:17:56.155Z,20.72
2023-02-21T09:20:26.441Z,20.70
2023-02-21T09:22:55.171Z,20.65
2023-02-21T09:25:25.261Z,20.45
2023-02-21T09:27:54.816Z,20.09
2023-02-21T09:30:27.185Z,19.82
2023-02-21T09:32:56.843Z,19.66
2023-02-21T09:35:25.064Z,19.90
2023-02-21T09:37:53.307Z,19.96
2023-02-21T09:40:32.738Z,20.10
2023-02-21T09:43:02.806Z,20.07
2023-02-21T09:45:36.516Z,19.89
2023-02-21T09:48:11.688Z,20.19
2023-02-21T09:51:06.580Z,20.53
2023-02-21T09:53:42.189Z,20.54
2023-02-21T09:56:28.724Z,20.45
2023-02-21T09:58:59.123Z,20.73
2023-02-21T10:01:51.555Z,20.82
2023-02-21T10:04:48.579Z,20.59
2023-02-21T10:07:37.255Z,20.83
2023-02-21T10:10:29.691Z,21.11
2023-02-21T10:13:16.819Z,21.46
2023-02-21T10:15:47.769Z,21.70
2023-02-21T10:18:25.350Z,21.54
2023-02-21T10:20:59.654Z,21.54
2023-02-21T10:23:37.148Z,21.61
2023-02-21T10:26:10.848Z,21.26
2023-02-21T10:28:40.197Z,20.79
2023-02-21T10:31:14.740Z,20.62
2023-02-21T10:33:43.790Z,20.91
2023-02-21T10:36:17.012Z,21.01
2023-02-21T10:38:58.344Z,21.06
2023-02-21T10:41:29.801Z,21.02
2023-02-21T10:44:10.657Z,20.93
2023-02-21T10:46:49.877Z,20.76
2023-02-21T10:49:23.712Z,20.68
2023-02-21T10:52:17.382Z,20.44
2023-02-21T10:55:02.298Z,20.31
2023-02-21T10:57:39.005Z,20.05
2023-02-21T11:00:10.365Z,19.97
2023-02-21T11:02:44.815Z,19.72
2023-02-21T11:05:20.485Z,19.71
2023-02-21T11:08:07.102Z,19.76
2023-02-21T11:10:42.395Z,19.61
2023-02-21T11:13:23.346Z,19.53
2023-02-21T11:16:08.181Z,19.31
2023-02-21T11:18:36.244Z,19.23
2023-02-21T11:21:17.365Z,19.05
2023-02-21T11:24:02.851Z,19.12
2023-02-21T11:26:36.910Z,19.20
2023-02-21T11:29:11.881Z,18.76
2023-02-21T11:31:40.736Z,18.40
2023-02-21T11:34:12.646Z,18.35
2023-02-21T11:36:43.866Z,18.32
2023-02-21T11:39:27.961Z,18.55
2023-02-21T11:42:04.980Z,18.57
2023-02-21T11:44:40.683Z,18.80
2023-02-21T11:47:43.088Z,18.98
2023-02-21T11:50:15.920Z,19.18
2023-02-21T11:53:04.227Z,19.20
2023-02-21T11:55:32.452Z,19.42
2023-02-21T11:58:19.141Z,19.21
2023-02-21T12:01:09.800Z,18.77
2023-02-21T12:04:13.637Z,18.60
2023-02-21T12:07:19.310Z,18.45
2023-02-21T12:09:58.123Z,18.38
2023-02-21T12:13:08.180Z,18.27
2023-02-21T12:16:00.185Z,18.16
2023-02-21T12:18:47.321Z,17.98
2023-02-21T12:21:37.811Z,17.91
2023-02-21T12:24:26.048Z,17.77
2023-02-21T12:27:32.831Z,17.57
2023-02-21T12:30:27.538Z,17.56
2023-02-21T12:32:58.583Z,17.57
2023-02-21T12:35:49.360Z,17.52
2023-02-21T12:38:41.816Z,17.34
2023-02-21T12:41:16.226Z,17.11
2023-02-21T12:43:53.737Z,16.87
2023-02-21T12:46:32.835Z,16.78
2023-02-21T12:49:11.042Z,16.69
2023-02-21T12:51:48.559Z,16.82
2023-02-21T12:54:26.911Z,16.79
2023-02-21T12:57:04.132Z,16.75
2023-02-21T12:59:54.072Z,16.74
2023-02-21T13:02:31.024Z,16.70
2023-02-21T13:05:21.495Z,16.48
2023-02-21T13:08:01.989Z,16.19
2023-02-21T13:10:35.609Z,15.87
2023-02-21T13:13:14.052Z,15.62
2023-02-21T13:15:46.934Z,15.60
2023-02-21T13:18:15.045Z,15.47
2023-02-21T13:20:48.749Z,15.25
2023-02-21T13:23:41.683Z,15.08
2023-02-21T13:26:28.262Z,15.01
2023-02-21T13:28:58.266Z,15.03
2023-02-21T13:31:38.975Z,14.99
2023-02-21T13:34:11.737Z,14.78
2023-02-21T13:36:42.303Z,14.59
2023-02-21T13:39:15.215Z,14.36
2023-02-21T13:41:56.574Z,14.05
2023-02-21T13:44:32.932Z,13.73
2023-02-21T13:47:19.978Z,13.58
2023-02-21T13:49:57.057Z,13.45
2023-02-21T13:52:27.753Z,13.36
2023-02-21T13:55:19.803Z,13.26
2023-02-21T13:57:57.799Z,13.20
2023-02-21T14:00:25.887Z,13.19
2023-02-21T14:02:58.548Z,13.22
2023-02-21T14:05:50.981Z,13.22
2023-02-21T14:08:19.269Z,13.19
2023-02-21T14:10:53.706Z,13.16
2023-02-21T14:13:30.460Z,13.09
2023-02-21T14:16:11.064Z,13.02
2023-02-21T14:18:39.124Z,13.03
2023-02-21T14:21:11.151Z,13.09
2023-02-21T14:23:48.538Z,13.15
2023-02-21T14:26:38.558Z,13.20
2023-02-21T14:29:15.978Z,13.20
2023-02-21T14:31:52.483Z,13.21
2023-02-21T14:34:26.573Z,13.24
2023-02-21T14:37:00.300Z,13.21
2023-02-21T14:39:35.952Z,13.15
2023-02-21T14:42:22.968Z,13.11
2023-02-21T14:44:59.323Z,13.12
2023-02-21T14:48:06.215Z,13.10
2023-02-21T14:51:04.280Z,13.08
2023-02-21T14:54:06.357Z,13.06
2023-02-21T14:57:04.943Z,13.02
2023-02-21T14:59:32.905Z,12.98
2023-02-21T15:02:03.678Z,12.94
2023-02-21T15:04:39.586Z,12.90
2023-02-21T15:07:24.728Z,12.85
2023-02-21T15:10:11.982Z,12.83
2023-02-21T15:12:44.256Z,12.77
2023-02-21T15:15:38.602Z,12.72
2023-02-21T15:18:09.901Z,12.65
2023-02-21T15:20:40.513Z,12.58
2023-02-21T15:23:17.084Z,12.53
2023-02-21T15:25:54.174Z,12.48
2023-02-21T15:28:25.438Z,12.43
2023-02-21T15:30:59.460Z,12.40
2023-02-21T15:33:32.250Z,12.34
2023-02-21T15:36:06.100Z,12.33
2023-02-21T15:38:48.726Z,12.31
2023-02-21T15:41:29.585Z,12.29
2023-02-21T15:44:07.187Z,12.26
2023-02-21T15:46:54.506Z,12.23
2023-02-21T15:49:27.797Z,12.19
2023-02-21T15:51:56.081Z,12.17
2023-02-21T15:54:25.833Z,12.16
2023-02-21T15:57:02.975Z,12.15
2023-02-21T15:59:31.617Z,12.12
2023-02-21T16:02:12.667Z,12.09
2023-02-21T16:04:46.562Z,12.06
2023-02-21T16:07:25.763Z,12.04
2023-02-21T16:10:05.102Z,12.02
2023-02-21T16:12:38.558Z,12.00
2023-02-21T16:15:18.491Z,11.98
2023-02-21T16:17:56.652Z,11.96
2023-02-21T16:20:30.920Z,11.94
2023-02-21T16:23:32.946Z,11.90
2023-02-21T16:26:27.152Z,11.88
2023-02-21T16:28:59.384Z,11.86
2023-02-21T16:31:33.600Z,11.84
2023-02-21T16:34:01.877Z,11.82
2023-02-21T16:36:32.051Z,11.80
2023-02-21T16:39:00.259Z,11.78
2023-02-21T16:41:28.304Z,11.76
2023-02-21T16:43:56.594Z,11.73
2023-02-21T16:46:29.949Z,11.71
2023-02-21T16:49:00.139Z,11.69
2023-02-21T16:51:33.882Z,11.67
2023-02-21T16:54:03.254Z,11.64
2023-02-21T16:56:31.427Z,11.63
2023-02-21T16:58:59.889Z,11.61
2023-02-21T17:01:30.850Z,11.60
2023-02-21T17:03:58.902Z,11.58
2023-02-21T17:06:27.860Z,11.56
2023-02-21T17:08:56.993Z,11.53
2023-02-21T17:11:26.651Z,11.51
2023-02-21T17:13:54.757Z,11.48
2023-02-21T17:16:22.975Z,11.48
2023-02-21T17:18:51.012Z,11.46
2023-02-21T17:21:19.027Z,11.45
2023-02-21T17:23:47.089Z,11.44
2023-02-21T17:26:17.469Z,11.41
2023-02-21T17:28:45.683Z,11.37
2023-02-21T17:31:18.946Z,11.35
2023-02-21T17:33:47.726Z,11.33
2023-02-21T17:36:20.702Z,11.30
2023-02-21T17:38:49.018Z,11.27
2023-02-21T17:41:17.954Z,11.25
2023-02-21T17:43:47.093Z,11.23
2023-02-21T17:46:17.649Z,11.23
2023-02-21T17:48:45.934Z,11.22
2023-02-21T17:51:20.335Z,11.19
2023-02-21T17:53:48.778Z,11.15
2023-02-21T17:56:22.426Z,11.10
2023-02-21T17:58:50.947Z,11.07
2023-02-21T18:01:20.197Z,11.05
2023-02-21T18:03:49.043Z,11.01
2023-02-21T18:06:17.724Z,10.96
2023-02-21T18:08:47.259Z,10.91
2023-02-21T18:11:17.853Z,10.87
2023-02-21T18:13:46.307Z,10.85
2023-02-21T18:16:14.803Z,10.81
2023-02-21T18:18:43.020Z,10.78
2023-02-21T18:21:11.589Z,10.77
2023-02-21T18:23:43.942Z,10.77
2023-02-21T18:26:12.888Z,10.76
2023-02-21T18:28:41.373Z,10.73
2023-02-21T18:31:11.183Z,10.72
2023-02-21T18:33:39.432Z,10.71
2023-02-21T18:36:11.585Z,10.70
2023-02-21T18:38:40.977Z,10.69
2023-02-21T18:41:14.505Z,10.68
2023-02-21T18:43:44.303Z,10.68
2023-02-21T18:46:15.256Z,10.68
2023-02-21T18:48:45.571Z,10.66
2023-02-21T18:51:16.135Z,10.64
2023-02-21T18:53:44.669Z,10.62
2023-02-21T18:56:15.770Z,10.61
2023-02-21T18:58:43.746Z,10.59
2023-02-21T19:01:18.934Z,10.58
2023-02-21T19:03:51.158Z,10.57
2023-02-21T19:06:21.419Z,10.56
2023-02-21T19:08:54.353Z,10.55
2023-02-21T19:11:22.551Z,10.54
2023-02-21T19:13:50.916Z,10.51
2023-02-21T19:16:20.408Z,10.49
2023-02-21T19:18:51.696Z,10.46
2023-02-21T19:21:20.368Z,10.45
2023-02-21T19:23:48.446Z,10.43
2023-02-21T19:26:17.292Z,10.42
2023-02-21T19:28:46.471Z,10.40
2023-02-21T19:31:19.046Z,10.39
2023-02-21T19:33:47.594Z,10.38
2023-02-21T19:36:15.605Z,10.36
2023-02-21T19:38:46.195Z,10.36
2023-02-21T19:41:14.343Z,10.34
2023-02-21T19:43:42.740Z,10.31
2023-02-21T19:46:26.849Z,10.29
2023-02-21T19:48:56.997Z,10.27
2023-02-21T19:51:27.284Z,10.26
2023-02-21T19:53:59.102Z,10.26
2023-02-21T19:56:27.623Z,10.23
2023-02-21T19:58:55.552Z,10.20
2023-02-21T20:01:25.469Z,10.18
2023-02-21T20:03:53.706Z,10.13
2023-02-21T20:06:24.966Z,10.10
2023-02-21T20:08:53.026Z,10.08
2023-02-21T20:11:23.652Z,10.07
2023-02-21T20:13:51.794Z,10.07
2023-02-21T20:16:22.422Z,10.08
2023-02-21T20:18:53.709Z,10.09
2023-02-21T20:21:30.876Z,10.10
2023-02-21T20:24:00.155Z,10.10
2023-02-21T20:26:29.453Z,10.09
2023-02-21T20:28:57.564Z,10.08
2023-02-21T20:31:28.956Z,10.08
2023-02-21T20:33:57.289Z,10.07
2023-02-21T20:36:31.560Z,10.06
2023-02-21T20:38:59.680Z,10.05
2023-02-21T20:41:32.965Z,10.03
2023-02-21T20:44:02.288Z,10.00
2023-02-21T20:46:30.893Z,9.98
2023-02-21T20:48:59.188Z,9.95
2023-02-21T20:51:29.777Z,9.92
2023-02-21T20:54:00.506Z,9.90
2023-02-21T20:56:36.884Z,9.89
2023-02-21T20:59:07.888Z,9.89
2023-02-21T21:01:36.219Z,9.88
2023-02-21T21:04:08.327Z,9.88
2023-02-21T21:06:36.820Z,9.87
2023-02-21T21:09:05.300Z,9.86
2023-02-21T21:11:35.186Z,9.86
2023-02-21T21:14:03.383Z,9.87
2023-02-21T21:16:32.073Z,9.85
2023-02-21T21:19:00.355Z,9.84
2023-02-21T21:21:30.153Z,9.82
2023-02-21T21:23:58.254Z,9.80
2023-02-21T21:26:26.615Z,9.79
2023-02-21T21:28:54.881Z,9.76
2023-02-21T21:31:23.835Z,9.74
2023-02-21T21:33:52.118Z,9.71
2023-02-21T21:36:20.097Z,9.67
2023-02-21T21:38:48.502Z,9.63
2023-02-21T21:41:17.269Z,9.61
2023-02-21T21:43:46.066Z,9.57
2023-02-21T21:46:14.641Z,9.53
2023-02-21T21:48:44.503Z,9.49
2023-02-21T21:51:14.400Z,9.47
2023-02-21T21:53:42.857Z,9.46
2023-02-21T21:56:11.465Z,9.44
2023-02-21T21:58:39.623Z,9.43
2023-02-21T22:01:07.827Z,9.41
2023-02-21T22:03:35.966Z,9.40
2023-02-21T22:06:04.241Z,9.40
2023-02-21T22:08:32.501Z,9.38
2023-02-21T22:11:00.779Z,9.37
2023-02-21T22:13:29.776Z,9.35
2023-02-21T22:15:58.024Z,9.34
2023-02-21T22:18:26.328Z,9.31
2023-02-21T22:20:54.493Z,9.30
2023-02-21T22:23:24.302Z,9.29
2023-02-21T22:25:53.710Z,9.28
2023-02-21T22:28:21.739Z,9.26
2023-02-21T22:30:50.755Z,9.24
2023-02-21T22:33:20.513Z,9.23
2023-02-21T22:35:48.523Z,9.23
2023-02-21T22:38:17.584Z,9.23
2023-02-21T22:40:46.345Z,9.23
2023-02-21T22:43:14.710Z,9.22
2023-02-21T22:45:49.962Z,9.21
2023-02-21T22:48:20.713Z,9.20
2023-02-21T22:50:49.342Z,9.20
2023-02-21T22:53:19.100Z,9.18
2023-02-21T22:56:01.616Z,9.17
2023-02-21T22:58:29.857Z,9.15
2023-02-21T23:01:00.225Z,9.13
2023-02-21T23:03:28.969Z,9.11
2023-02-21T23:06:02.046Z,9.07
2023-02-21T23:08:30.134Z,9.05
2023-02-21T23:10:58.509Z,9.03
2023-02-21T23:13:26.999Z,9.01
2023-02-21T23:15:57.634Z,8.98
2023-02-21T23:18:26.319Z,8.95
2023-02-21T23:20:56.946Z,8.93
2023-02-21T23:23:28.380Z,8.90
2023-02-21T23:25:59.301Z,8.89
2023-02-21T23:28:30.787Z,8.88
2023-02-21T23:30:59.473Z,8.87
2023-02-21T23:33:30.074Z,8.85
2023-02-21T23:35:58.353Z,8.83
2023-02-21T23:38:30.230Z,8.80
2023-02-21T23:41:02.039Z,8.77
2023-02-21T23:43:35.834Z,8.74
2023-02-21T23:46:09.305Z,8.71
2023-02-21T23:48:37.763Z,8.68
2023-02-21T23:51:08.354Z,8.68
2023-02-21T23:53:37.085Z,8.69
2023-02-21T23:56:06.033Z,8.68
2023-02-21T23:58:34.291Z,8.67
